Terminal Aerodrome Forecast
Issued by NWS

Home | Current Version | Previous Version | Text Only | Print | Product List | Glossary On
Versions: 1 2 3 4 5 6 7 8 9 10 11 12 13 14 15 16
000
FTUS45 KTFX 010520
TAFBZN
TAF
KBZN 010520Z 0106/0206 VRB03KT P6SM BKN060
     FM011100 VRB06KT P6SM SCT060 BKN090
     FM011800 07009KT P6SM SCT100
     FM020100 VRB04KT P6SM SKC=

USA.gov is the U.S. government's official web portal to all federal, state and local government web resources and services.